Time;durP1;ratioP1;P1;durP2;ratioP2;P2;SDS_P1;SDS_P2;PMS_P1;PMS_P2;Temp;Humidity;BMP_temperature;BMP_pressure;BME280_temperature;BME280_humidity;BME280_pressure;Samples;Min_cycle;Max_cycle;Signal;HPM_P1;HPM_P2
2023/10/09 00:01:44;;;;;;;10.77;5.13;;;;;;;;;;5025297;28;20042;-76
2023/10/09 00:04:11;;;;;;;12.15;5.18;;;;;;;;;;5031430;28;20769;-76
2023/10/09 00:06:37;;;;;;;9.32;5.22;;;;;;;;;;5018374;28;20072;-77
2023/10/09 00:11:56;;;;;;;11.20;5.78;;;;;;;;;;5014238;28;20052;-77
2023/10/09 00:14:22;;;;;;;11.52;4.82;;;;;;;;;;5012368;28;20452;-76
2023/10/09 00:16:48;;;;;;;9.77;5.13;;;;;;;;;;5013497;28;20088;-77
2023/10/09 00:19:19;;;;;;;11.98;5.60;;;;;;;;;;5011095;28;20426;-76
2023/10/09 00:21:48;;;;;;;12.80;5.22;;;;;;;;;;5016401;28;20183;-76
2023/10/09 00:24:23;;;;;;;11.80;5.15;;;;;;;;;;5014111;28;20091;-76
2023/10/09 00:27:01;;;;;;;12.10;5.07;;;;;;;;;;5013971;28;20163;-77
2023/10/09 00:29:34;;;;;;;10.70;5.38;;;;;;;;;;5016491;28;20038;-76
2023/10/09 00:32:22;;;;;;;10.70;4.97;;;;;;;;;;5019733;28;20521;-76
2023/10/09 00:34:50;;;;;;;14.73;5.30;;;;;;;;;;5017328;28;20098;-76
2023/10/09 00:37:16;;;;;;;10.27;5.55;;;;;;;;;;5034699;28;20049;-76
2023/10/09 00:39:43;;;;;;;9.90;5.22;;;;;;;;;;5018162;28;20049;-76
2023/10/09 00:42:14;;;;;;;10.57;5.63;;;;;;;;;;5016063;28;20056;-76
2023/10/09 00:44:42;;;;;;;12.00;5.72;;;;;;;;;;5015369;28;20029;-77
2023/10/09 00:47:33;;;;;;;11.57;5.88;;;;;;;;;;5019816;28;20033;-76
2023/10/09 00:50:20;;;;;;;9.90;5.57;;;;;;;;;;5031133;28;20124;-76
2023/10/09 00:52:49;;;;;;;9.00;5.65;;;;;;;;;;5015812;28;20064;-76
2023/10/09 00:55:21;;;;;;;11.48;5.45;;;;;;;;;;5034082;28;20792;-76
2023/10/09 00:58:00;;;;;;;14.35;6.28;;;;;;;;;;5015562;28;20056;-76
2023/10/09 01:00:51;;;;;;;11.95;6.10;;;;;;;;;;5018944;28;20140;-76
2023/10/09 01:10:56;;;;;;;12.60;5.53;;;;;;;;;;5018654;28;20045;-76
2023/10/09 01:16:16;;;;;;;13.80;6.78;;;;;;;;;;5011818;28;20052;-76
2023/10/09 01:18:43;;;;;;;13.13;6.63;;;;;;;;;;5018828;28;20136;-76
2023/10/09 01:21:13;;;;;;;10.32;6.18;;;;;;;;;;5014833;28;20048;-76
2023/10/09 01:24:03;;;;;;;12.18;6.35;;;;;;;;;;5019576;28;20107;-76
2023/10/09 01:26:39;;;;;;;19.95;7.00;;;;;;;;;;5027365;28;20036;-76
2023/10/09 01:29:14;;;;;;;12.57;6.18;;;;;;;;;;5015883;28;20037;-76
2023/10/09 01:31:44;;;;;;;12.40;6.18;;;;;;;;;;5032866;28;20052;-76
2023/10/09 01:34:09;;;;;;;11.95;6.68;;;;;;;;;;5016633;28;20037;-76
2023/10/09 01:36:39;;;;;;;11.50;6.28;;;;;;;;;;5018102;28;20213;-76
2023/10/09 01:39:22;;;;;;;12.05;6.13;;;;;;;;;;5017882;28;20133;-75
2023/10/09 01:41:51;;;;;;;14.50;6.40;;;;;;;;;;5031639;28;20549;-76
2023/10/09 01:44:18;;;;;;;11.43;6.20;;;;;;;;;;5015374;28;20033;-76
2023/10/09 01:46:47;;;;;;;14.07;6.40;;;;;;;;;;5013723;28;20037;-76
2023/10/09 01:49:29;;;;;;;14.85;6.75;;;;;;;;;;5018031;28;20095;-76
2023/10/09 01:52:07;;;;;;;10.60;5.88;;;;;;;;;;5015410;28;20112;-76
2023/10/09 01:54:36;;;;;;;12.18;6.47;;;;;;;;;;5015948;28;20056;-77
2023/10/09 01:57:05;;;;;;;16.00;6.22;;;;;;;;;;5021750;28;20038;-76
2023/10/09 01:59:36;;;;;;;12.63;6.40;;;;;;;;;;5013308;28;20562;-76
2023/10/09 02:02:11;;;;;;;11.57;6.10;;;;;;;;;;5017156;28;20108;-76
2023/10/09 02:04:39;;;;;;;10.13;6.45;;;;;;;;;;5013148;28;20547;-76
2023/10/09 02:07:07;;;;;;;11.32;6.05;;;;;;;;;;5014496;28;20033;-76
2023/10/09 02:09:34;;;;;;;12.00;6.35;;;;;;;;;;5021224;28;20100;-76
2023/10/09 02:12:00;;;;;;;16.35;6.60;;;;;;;;;;5014891;28;20061;-77
2023/10/09 02:14:26;;;;;;;12.38;6.40;;;;;;;;;;5012569;28;20040;-76
2023/10/09 02:19:38;;;;;;;13.23;6.85;;;;;;;;;;5014054;28;20084;-76
2023/10/09 02:22:13;;;;;;;14.30;6.30;;;;;;;;;;5017654;28;20510;-76
2023/10/09 02:27:40;;;;;;;15.68;7.38;;;;;;;;;;5011250;28;20120;-76
2023/10/09 02:30:17;;;;;;;15.05;7.05;;;;;;;;;;5013591;28;20053;-76
2023/10/09 02:32:44;;;;;;;13.30;6.28;;;;;;;;;;5016682;28;20042;-76
2023/10/09 02:35:36;;;;;;;15.77;6.53;;;;;;;;;;5017117;28;20038;-76
2023/10/09 02:37:57;;;;;;;14.85;6.80;;;;;;;;;;5015283;28;20559;-76
2023/10/09 02:40:31;;;;;;;11.75;6.80;;;;;;;;;;5012625;28;20034;-76
2023/10/09 02:42:57;;;;;;;13.60;6.90;;;;;;;;;;5016665;28;20056;-76
2023/10/09 02:45:29;;;;;;;12.65;7.05;;;;;;;;;;5018692;28;20041;-76
2023/10/09 02:47:55;;;;;;;13.90;6.50;;;;;;;;;;5022207;28;20041;-76
2023/10/09 02:50:21;;;;;;;13.38;6.97;;;;;;;;;;5028695;28;20034;-76
2023/10/09 02:52:52;;;;;;;14.15;7.32;;;;;;;;;;5024827;28;20600;-76
2023/10/09 02:55:26;;;;;;;15.68;7.95;;;;;;;;;;5017886;28;20117;-76
2023/10/09 02:58:20;;;;;;;20.45;7.57;;;;;;;;;;5015353;28;20533;-76
2023/10/09 03:00:46;;;;;;;16.58;7.13;;;;;;;;;;5014724;28;20049;-77
2023/10/09 03:03:12;;;;;;;16.27;7.07;;;;;;;;;;5015441;28;20052;-76
2023/10/09 03:05:42;;;;;;;12.93;7.25;;;;;;;;;;5016511;28;20037;-77
2023/10/09 03:08:08;;;;;;;15.82;7.25;;;;;;;;;;5012327;28;20025;-76
2023/10/09 03:10:34;;;;;;;14.65;7.30;;;;;;;;;;5005000;28;20049;-76
2023/10/09 03:13:05;;;;;;;14.27;7.00;;;;;;;;;;5015894;28;20045;-76
2023/10/09 03:15:35;;;;;;;11.65;6.22;;;;;;;;;;5015435;28;20049;-77
2023/10/09 03:18:02;;;;;;;11.85;6.22;;;;;;;;;;5015755;28;20068;-76
2023/10/09 03:20:28;;;;;;;18.27;7.53;;;;;;;;;;5016459;28;20037;-76
2023/10/09 03:22:54;;;;;;;19.20;7.20;;;;;;;;;;5013738;28;20846;-77
2023/10/09 03:25:19;;;;;;;12.00;6.22;;;;;;;;;;5012929;28;20069;-77
2023/10/09 03:27:45;;;;;;;16.08;6.80;;;;;;;;;;5013305;28;20136;-77
2023/10/09 03:30:22;;;;;;;16.25;7.20;;;;;;;;;;5032012;28;20040;-77
2023/10/09 03:32:50;;;;;;;12.93;6.65;;;;;;;;;;5029393;28;20553;-76
2023/10/09 03:35:24;;;;;;;12.43;7.00;;;;;;;;;;5012805;28;20034;-77
2023/10/09 03:38:34;;;;;;;17.00;6.40;;;;;;;;;;5013929;28;20522;-77
2023/10/09 03:40:48;;;;;;;13.55;6.50;;;;;;;;;;5011700;28;20057;-77
2023/10/09 03:43:14;;;;;;;14.00;7.40;;;;;;;;;;5012355;28;20435;-77
2023/10/09 03:45:52;;;;;;;13.82;6.45;;;;;;;;;;5010776;28;20050;-76
2023/10/09 03:48:25;;;;;;;12.50;6.80;;;;;;;;;;5015593;28;20881;-76
2023/10/09 03:51:06;;;;;;;13.18;7.15;;;;;;;;;;5012602;28;20038;-77
2023/10/09 03:53:31;;;;;;;16.15;7.18;;;;;;;;;;5015922;28;20919;-77
2023/10/09 03:55:59;;;;;;;12.70;6.28;;;;;;;;;;5011806;28;20025;-76
2023/10/09 03:58:25;;;;;;;12.70;6.68;;;;;;;;;;5012832;28;20052;-77
2023/10/09 04:00:51;;;;;;;14.15;6.43;;;;;;;;;;5013789;28;20049;-77
2023/10/09 04:03:16;;;;;;;15.82;6.78;;;;;;;;;;5013702;28;20037;-76
2023/10/09 04:05:43;;;;;;;12.68;6.05;;;;;;;;;;5015531;28;20426;-76
2023/10/09 04:08:28;;;;;;;10.75;5.93;;;;;;;;;;5015575;28;20022;-77
2023/10/09 04:11:01;;;;;;;9.82;5.75;;;;;;;;;;5019689;28;20054;-77
2023/10/09 04:13:33;;;;;;;12.52;6.60;;;;;;;;;;5027358;28;20060;-77
2023/10/09 04:16:01;;;;;;;13.57;6.78;;;;;;;;;;5021942;28;20098;-77
2023/10/09 04:18:32;;;;;;;13.85;7.28;;;;;;;;;;5010419;28;20132;-76
2023/10/09 04:21:18;;;;;;;11.30;6.65;;;;;;;;;;5013094;28;20034;-77
2023/10/09 04:24:38;;;;;;;13.88;6.72;;;;;;;;;;5012871;28;20125;-76
2023/10/09 04:26:37;;;;;;;14.65;7.70;;;;;;;;;;5006341;28;20033;-77
2023/10/09 04:29:03;;;;;;;13.38;7.28;;;;;;;;;;5015182;28;20028;-76
2023/10/09 04:31:31;;;;;;;14.85;7.47;;;;;;;;;;5015410;28;20687;-77
2023/10/09 04:36:49;;;;;;;13.73;7.18;;;;;;;;;;5012744;28;20772;-77
2023/10/09 04:39:37;;;;;;;22.30;8.25;;;;;;;;;;5015011;28;20036;-77
2023/10/09 04:42:36;;;;;;;17.02;8.30;;;;;;;;;;5011174;28;20042;-77
2023/10/09 04:47:38;;;;;;;19.38;8.35;;;;;;;;;;5011219;28;20025;-77
2023/10/09 04:50:11;;;;;;;19.27;8.60;;;;;;;;;;5011323;28;20036;-76
2023/10/09 04:58:00;;;;;;;18.00;8.63;;;;;;;;;;5014669;28;20080;-76
2023/10/09 05:02:54;;;;;;;15.30;8.20;;;;;;;;;;5013112;28;20056;-76
2023/10/09 05:08:28;;;;;;;18.55;8.93;;;;;;;;;;5014250;28;20111;-76
2023/10/09 05:13:57;;;;;;;15.93;8.13;;;;;;;;;;5012039;28;20120;-76
2023/10/09 05:16:19;;;;;;;16.83;8.40;;;;;;;;;;5012977;28;20137;-76
2023/10/09 05:18:55;;;;;;;16.08;8.18;;;;;;;;;;5017675;28;20037;-76
2023/10/09 05:32:15;;;;;;;14.43;8.80;;;;;;;;;;5017263;28;20045;-76
2023/10/09 05:37:33;;;;;;;20.33;9.40;;;;;;;;;;5033459;28;20124;-76
2023/10/09 05:42:44;;;;;;;18.23;9.30;;;;;;;;;;5017637;28;20883;-75
2023/10/09 05:47:53;;;;;;;24.48;9.68;;;;;;;;;;5015567;28;20137;-76
2023/10/09 06:03:54;;;;;;;22.20;10.40;;;;;;;;;;5008415;28;20048;-76
2023/10/09 06:06:32;;;;;;;21.50;10.50;;;;;;;;;;5015295;28;20518;-77
2023/10/09 06:11:49;;;;;;;21.05;9.98;;;;;;;;;;5009669;28;20045;-77
2023/10/09 06:15:18;;;;;;;20.67;10.00;;;;;;;;;;5030634;28;20041;-76
2023/10/09 06:19:31;;;;;;;20.15;10.68;;;;;;;;;;5013641;28;20042;-77
2023/10/09 06:24:42;;;;;;;21.75;10.07;;;;;;;;;;5016388;28;20048;-77
2023/10/09 06:27:12;;;;;;;18.63;9.25;;;;;;;;;;5012674;28;20434;-75
2023/10/09 06:34:57;;;;;;;19.17;9.85;;;;;;;;;;5012864;28;20103;-76
2023/10/09 06:47:55;;;;;;;19.83;9.02;;;;;;;;;;5015446;28;20104;-75
2023/10/09 06:52:57;;;;;;;18.13;9.30;;;;;;;;;;5017091;28;19932;-76
2023/10/09 06:55:33;;;;;;;17.80;9.43;;;;;;;;;;5020329;28;20042;-75
2023/10/09 06:58:01;;;;;;;19.92;10.73;;;;;;;;;;5022086;28;20049;-76
2023/10/09 07:03:12;;;;;;;20.75;10.90;;;;;;;;;;5024802;28;20036;-74
2023/10/09 07:08:36;;;;;;;22.65;11.07;;;;;;;;;;5013073;28;20533;-75
2023/10/09 07:11:21;;;;;;;21.10;10.75;;;;;;;;;;5015539;28;20047;-75
2023/10/09 07:13:55;;;;;;;22.23;11.73;;;;;;;;;;5012220;28;20053;-75
2023/10/09 07:16:24;;;;;;;23.17;12.45;;;;;;;;;;5012008;28;20041;-74
2023/10/09 07:18:49;;;;;;;31.25;12.18;;;;;;;;;;5013014;28;20076;-75
2023/10/09 07:21:18;;;;;;;23.23;12.40;;;;;;;;;;5009407;28;20073;-76
2023/10/09 07:23:49;;;;;;;28.33;13.23;;;;;;;;;;5013591;28;20041;-75
2023/10/09 07:26:36;;;;;;;33.38;15.52;;;;;;;;;;5011013;28;20033;-75
2023/10/09 07:29:16;;;;;;;30.85;14.63;;;;;;;;;;5014077;28;20100;-75
2023/10/09 07:31:45;;;;;;;27.65;14.02;;;;;;;;;;5010976;28;20177;-74
2023/10/09 07:36:56;;;;;;;28.95;13.70;;;;;;;;;;5013384;28;20060;-75
2023/10/09 07:39:22;;;;;;;27.65;14.00;;;;;;;;;;5008999;28;20160;-74
2023/10/09 07:42:14;;;;;;;31.75;14.23;;;;;;;;;;5005095;28;20149;-75
2023/10/09 07:44:42;;;;;;;24.40;13.38;;;;;;;;;;5016202;28;20037;-75
2023/10/09 07:47:15;;;;;;;26.73;14.05;;;;;;;;;;5013513;28;20100;-75
2023/10/09 07:49:42;;;;;;;26.98;13.38;;;;;;;;;;5011731;28;20644;-75
2023/10/09 07:52:07;;;;;;;25.25;13.80;;;;;;;;;;5017241;28;20049;-75
2023/10/09 07:54:33;;;;;;;29.23;14.07;;;;;;;;;;5012642;28;20429;-75
2023/10/09 07:57:15;;;;;;;30.67;13.93;;;;;;;;;;5013968;28;20457;-75
2023/10/09 07:59:54;;;;;;;27.13;12.95;;;;;;;;;;5013247;28;20083;-76
2023/10/09 08:02:31;;;;;;;26.90;14.10;;;;;;;;;;5015037;28;20029;-74
2023/10/09 08:05:04;;;;;;;26.17;13.25;;;;;;;;;;5013304;28;20084;-75
2023/10/09 08:07:35;;;;;;;27.48;13.05;;;;;;;;;;5012918;28;20278;-74
2023/10/09 08:12:57;;;;;;;27.65;13.30;;;;;;;;;;5016533;28;20045;-80
2023/10/09 08:15:34;;;;;;;26.27;13.35;;;;;;;;;;5010153;28;20048;-80
2023/10/09 08:18:18;;;;;;;23.60;13.18;;;;;;;;;;5010682;28;20754;-78
2023/10/09 08:23:46;;;;;;;24.17;13.02;;;;;;;;;;5020782;28;20051;-78
2023/10/09 08:26:15;;;;;;;26.38;14.30;;;;;;;;;;5023640;28;20507;-76
2023/10/09 08:28:48;;;;;;;23.75;12.98;;;;;;;;;;5016170;28;20136;-75
2023/10/09 08:31:19;;;;;;;23.90;13.32;;;;;;;;;;5015635;28;20541;-76
2023/10/09 08:33:56;;;;;;;26.42;13.18;;;;;;;;;;5002389;28;20033;-76
2023/10/09 08:36:22;;;;;;;23.55;12.25;;;;;;;;;;5014057;28;20030;-76
2023/10/09 08:38:48;;;;;;;25.95;13.07;;;;;;;;;;5010869;28;20466;-76
2023/10/09 08:41:22;;;;;;;24.70;13.00;;;;;;;;;;5011738;28;20526;-76
2023/10/09 08:43:52;;;;;;;23.13;12.82;;;;;;;;;;5014638;28;20046;-76
2023/10/09 08:46:23;;;;;;;24.17;12.38;;;;;;;;;;5006020;28;20034;-81
2023/10/09 08:48:49;;;;;;;26.40;12.63;;;;;;;;;;5014880;28;20074;-80
2023/10/09 08:51:18;;;;;;;28.08;13.32;;;;;;;;;;5018218;28;20092;-80
2023/10/09 08:53:45;;;;;;;26.25;13.80;;;;;;;;;;5021562;28;20067;-79
2023/10/09 08:56:12;;;;;;;32.38;13.75;;;;;;;;;;5019816;28;20035;-77
2023/10/09 08:58:38;;;;;;;23.40;12.45;;;;;;;;;;5018451;28;20037;-78
2023/10/09 09:01:03;;;;;;;34.83;13.73;;;;;;;;;;5015937;28;20301;-77
2023/10/09 09:03:40;;;;;;;26.95;13.77;;;;;;;;;;5014579;28;20037;-77
2023/10/09 09:06:06;;;;;;;24.88;13.00;;;;;;;;;;5011164;28;20041;-75
2023/10/09 09:08:36;;;;;;;26.50;13.77;;;;;;;;;;5018138;28;20680;-77
2023/10/09 09:11:11;;;;;;;24.13;12.75;;;;;;;;;;5007338;28;20022;-77
2023/10/09 09:13:48;;;;;;;23.60;13.18;;;;;;;;;;5019127;28;20542;-76
2023/10/09 09:16:21;;;;;;;28.08;13.10;;;;;;;;;;5017274;28;20038;-77
2023/10/09 09:19:04;;;;;;;24.08;13.35;;;;;;;;;;5015870;28;20550;-77
2023/10/09 09:21:38;;;;;;;24.38;13.15;;;;;;;;;;5014564;28;20069;-76
2023/10/09 09:26:58;;;;;;;28.75;12.73;;;;;;;;;;5017164;28;20036;-76
2023/10/09 09:29:54;;;;;;;22.42;11.95;;;;;;;;;;5011110;28;20045;-77
2023/10/09 09:32:35;;;;;;;22.80;12.75;;;;;;;;;;5016451;28;20030;-76
2023/10/09 09:35:04;;;;;;;22.67;12.75;;;;;;;;;;5030461;28;20037;-77
2023/10/09 09:37:33;;;;;;;23.95;12.82;;;;;;;;;;5014660;28;20072;-76
2023/10/09 09:40:15;;;;;;;26.67;13.30;;;;;;;;;;5017822;28;20041;-77
2023/10/09 09:42:45;;;;;;;25.23;12.43;;;;;;;;;;5018778;28;20187;-75
2023/10/09 09:45:11;;;;;;;25.80;12.63;;;;;;;;;;5015626;28;20550;-76
2023/10/09 09:47:37;;;;;;;24.52;12.68;;;;;;;;;;5021196;28;20018;-77
2023/10/09 09:50:13;;;;;;;23.10;13.40;;;;;;;;;;5035428;28;20025;-76
2023/10/09 09:52:38;;;;;;;22.50;12.85;;;;;;;;;;5025222;28;20053;-76
2023/10/09 09:55:14;;;;;;;22.92;12.88;;;;;;;;;;5024724;28;20120;-79
2023/10/09 09:57:40;;;;;;;23.75;13.10;;;;;;;;;;5025765;28;20523;-79
2023/10/09 10:00:27;;;;;;;26.40;13.18;;;;;;;;;;5013777;28;20048;-76
2023/10/09 10:02:57;;;;;;;23.75;12.38;;;;;;;;;;5014438;28;20049;-76
2023/10/09 10:05:29;;;;;;;22.25;12.52;;;;;;;;;;5017718;28;20732;-76
2023/10/09 10:07:59;;;;;;;21.98;12.65;;;;;;;;;;5014606;28;20494;-76
2023/10/09 10:10:57;;;;;;;24.38;12.73;;;;;;;;;;5016490;28;20034;-81
2023/10/09 10:13:40;;;;;;;23.60;11.95;;;;;;;;;;5017347;28;20045;-78
2023/10/09 10:16:11;;;;;;;22.05;11.40;;;;;;;;;;5018019;28;20045;-77
2023/10/09 10:21:41;;;;;;;23.15;12.20;;;;;;;;;;5018696;28;20048;-76
2023/10/09 10:24:51;;;;;;;25.35;12.35;;;;;;;;;;5020726;28;20033;-77
2023/10/09 10:28:00;;;;;;;21.85;11.10;;;;;;;;;;5011106;28;20891;-78
2023/10/09 10:30:11;;;;;;;20.73;10.77;;;;;;;;;;5022201;28;20065;-83
2023/10/09 10:32:52;;;;;;;28.10;11.35;;;;;;;;;;5006429;28;20022;-79
2023/10/09 10:35:32;;;;;;;24.50;11.27;;;;;;;;;;5014432;28;20021;-77
2023/10/09 10:38:32;;;;;;;21.00;10.77;;;;;;;;;;5017666;28;20990;-78
2023/10/09 10:41:00;;;;;;;19.23;10.70;;;;;;;;;;5010868;28;20042;-77
2023/10/09 10:43:32;;;;;;;18.83;10.35;;;;;;;;;;5015618;28;20056;-78
2023/10/09 10:46:05;;;;;;;18.63;10.40;;;;;;;;;;5018339;28;20042;-77
2023/10/09 10:48:37;;;;;;;20.17;10.40;;;;;;;;;;5022762;28;20042;-77
2023/10/09 10:51:04;;;;;;;23.47;10.97;;;;;;;;;;5014628;28;20033;-79
2023/10/09 10:53:34;;;;;;;17.08;10.80;;;;;;;;;;5018143;28;20042;-81
2023/10/09 10:58:38;;;;;;;21.77;10.48;;;;;;;;;;5015350;28;20091;-77
2023/10/09 11:01:13;;;;;;;16.70;9.40;;;;;;;;;;5017376;28;20513;-76
2023/10/09 11:03:55;;;;;;;19.58;10.23;;;;;;;;;;5014409;28;20116;-75
2023/10/09 11:06:37;;;;;;;20.02;9.63;;;;;;;;;;5012252;28;20462;-76
2023/10/09 11:09:38;;;;;;;17.60;8.88;;;;;;;;;;5017989;28;20522;-81
2023/10/09 11:12:12;;;;;;;19.60;9.95;;;;;;;;;;5024676;28;20042;-81
2023/10/09 11:15:05;;;;;;;22.67;10.10;;;;;;;;;;5028003;28;20037;-81
2023/10/09 11:17:35;;;;;;;19.02;10.05;;;;;;;;;;5013348;28;20045;-81
2023/10/09 11:20:25;;;;;;;20.33;10.25;;;;;;;;;;5014779;28;20036;-81
2023/10/09 11:25:50;;;;;;;19.13;9.30;;;;;;;;;;5016154;28;20040;-81
2023/10/09 11:31:11;;;;;;;15.93;9.02;;;;;;;;;;5017768;28;20077;-81
2023/10/09 11:33:51;;;;;;;13.55;8.18;;;;;;;;;;5012054;28;20053;-81
2023/10/09 11:36:17;;;;;;;18.08;8.20;;;;;;;;;;5009678;28;20068;-79
2023/10/09 11:38:45;;;;;;;14.25;7.65;;;;;;;;;;5014088;28;20049;-81
2023/10/09 11:41:22;;;;;;;18.45;9.40;;;;;;;;;;5014256;28;20026;-81
2023/10/09 11:43:53;;;;;;;17.27;7.00;;;;;;;;;;5016256;28;20618;-81
2023/10/09 11:46:48;;;;;;;16.70;7.22;;;;;;;;;;5015743;28;20044;-81
2023/10/09 11:49:44;;;;;;;14.55;7.25;;;;;;;;;;5012137;28;20041;-81
2023/10/09 11:54:35;;;;;;;13.38;6.75;;;;;;;;;;5012113;28;20053;-79
2023/10/09 11:57:01;;;;;;;10.80;5.97;;;;;;;;;;5012680;28;20046;-80
2023/10/09 11:59:28;;;;;;;15.52;6.82;;;;;;;;;;5014083;28;20075;-80
2023/10/09 12:01:54;;;;;;;14.77;6.15;;;;;;;;;;5012220;28;20025;-80
2023/10/09 12:04:20;;;;;;;17.42;6.03;;;;;;;;;;5012820;28;20108;-80
2023/10/09 12:06:45;;;;;;;16.50;6.35;;;;;;;;;;5011411;28;20037;-80
2023/10/09 12:09:23;;;;;;;17.48;7.05;;;;;;;;;;5012038;28;20041;-80
2023/10/09 12:11:52;;;;;;;16.67;6.22;;;;;;;;;;5013718;28;20034;-80
2023/10/09 12:14:23;;;;;;;13.82;5.78;;;;;;;;;;5031278;28;20036;-81
2023/10/09 12:16:49;;;;;;;19.75;6.47;;;;;;;;;;5014688;28;20050;-83
2023/10/09 12:19:15;;;;;;;11.10;6.40;;;;;;;;;;5012909;28;20061;-83
2023/10/09 12:21:42;;;;;;;10.40;5.93;;;;;;;;;;5013565;28;20491;-83
2023/10/09 12:24:11;;;;;;;17.35;6.47;;;;;;;;;;5019134;28;20061;-78
2023/10/09 12:26:39;;;;;;;11.20;5.30;;;;;;;;;;5014127;28;20032;-78
2023/10/09 12:29:10;;;;;;;11.68;6.28;;;;;;;;;;5017680;28;20021;-79
2023/10/09 12:31:36;;;;;;;8.65;5.30;;;;;;;;;;5014936;28;20050;-78
2023/10/09 12:34:02;;;;;;;10.95;6.13;;;;;;;;;;5019083;28;20038;-78
2023/10/09 12:36:28;;;;;;;9.25;5.18;;;;;;;;;;5028392;28;20043;-78
2023/10/09 12:38:54;;;;;;;13.90;5.70;;;;;;;;;;5029643;28;20094;-79
2023/10/09 12:41:25;;;;;;;14.90;5.50;;;;;;;;;;5034001;28;20049;-79
2023/10/09 12:43:51;;;;;;;11.80;5.85;;;;;;;;;;5014786;28;20045;-78
2023/10/09 12:46:23;;;;;;;11.48;5.95;;;;;;;;;;5012338;28;20030;-79
2023/10/09 12:48:57;;;;;;;9.32;5.43;;;;;;;;;;5013131;28;20100;-78
2023/10/09 12:51:29;;;;;;;7.00;4.55;;;;;;;;;;5014190;28;20691;-78
2023/10/09 12:53:57;;;;;;;17.30;6.13;;;;;;;;;;5006233;28;20038;-79
2023/10/09 12:56:32;;;;;;;12.68;5.13;;;;;;;;;;5030108;28;20032;-78
2023/10/09 12:59:01;;;;;;;13.05;5.00;;;;;;;;;;5009673;28;20035;-78
2023/10/09 13:01:31;;;;;;;92.53;10.13;;;;;;;;;;5011771;28;20049;-78
2023/10/09 13:03:59;;;;;;;353.52;23.83;;;;;;;;;;5012129;28;20471;-78
2023/10/09 13:06:25;;;;;;;37.15;6.60;;;;;;;;;;5012985;28;20037;-78
2023/10/09 13:08:51;;;;;;;11.68;5.32;;;;;;;;;;5010029;28;20574;-78
2023/10/09 13:11:17;;;;;;;11.45;5.15;;;;;;;;;;5012149;28;20030;-78
2023/10/09 13:13:44;;;;;;;12.55;5.55;;;;;;;;;;5010253;28;20036;-78
2023/10/09 13:16:23;;;;;;;11.43;5.50;;;;;;;;;;5013338;28;20079;-79
2023/10/09 13:18:50;;;;;;;7.72;4.70;;;;;;;;;;5013162;28;20037;-77
2023/10/09 13:21:31;;;;;;;10.52;5.15;;;;;;;;;;5011071;28;20042;-78
2023/10/09 13:23:58;;;;;;;14.50;5.15;;;;;;;;;;5010913;28;20050;-78
2023/10/09 13:26:27;;;;;;;10.50;5.18;;;;;;;;;;5016249;28;20018;-77
2023/10/09 13:28:53;;;;;;;9.15;5.03;;;;;;;;;;5017461;28;20067;-78
2023/10/09 13:31:25;;;;;;;10.82;5.35;;;;;;;;;;5010761;28;20034;-77
2023/10/09 13:33:54;;;;;;;9.35;4.90;;;;;;;;;;5016119;28;20045;-77
2023/10/09 13:36:26;;;;;;;10.25;5.40;;;;;;;;;;5017909;28;20042;-78
2023/10/09 13:38:53;;;;;;;11.20;5.00;;;;;;;;;;5010446;28;20717;-78
2023/10/09 13:41:19;;;;;;;12.13;5.70;;;;;;;;;;5015058;28;20091;-78
2023/10/09 13:43:44;;;;;;;15.80;5.82;;;;;;;;;;5020051;28;20072;-77
2023/10/09 13:46:17;;;;;;;10.43;5.53;;;;;;;;;;5015715;28;20048;-78
2023/10/09 13:48:43;;;;;;;15.20;5.88;;;;;;;;;;5032481;28;20057;-77
2023/10/09 13:51:18;;;;;;;13.68;5.30;;;;;;;;;;5018680;28;20037;-78
2023/10/09 13:53:45;;;;;;;9.45;5.00;;;;;;;;;;5018707;28;20041;-77
2023/10/09 13:56:18;;;;;;;8.75;4.78;;;;;;;;;;5015477;28;20119;-77
2023/10/09 13:58:44;;;;;;;11.00;5.43;;;;;;;;;;5024190;28;20026;-77
2023/10/09 14:01:10;;;;;;;12.57;5.78;;;;;;;;;;5028617;28;20038;-77
2023/10/09 14:03:38;;;;;;;13.65;5.88;;;;;;;;;;5017384;28;20111;-78
2023/10/09 14:06:12;;;;;;;13.65;5.35;;;;;;;;;;5012810;28;20057;-77
2023/10/09 14:08:42;;;;;;;12.50;5.28;;;;;;;;;;5013726;28;20573;-78
2023/10/09 14:11:13;;;;;;;11.35;5.72;;;;;;;;;;5013504;28;20025;-77
2023/10/09 14:13:39;;;;;;;12.32;5.40;;;;;;;;;;5014096;28;20100;-77
2023/10/09 14:16:06;;;;;;;9.82;5.50;;;;;;;;;;5012485;28;20041;-77
2023/10/09 14:18:32;;;;;;;11.50;5.00;;;;;;;;;;5013986;28;20133;-77
2023/10/09 14:21:04;;;;;;;14.93;5.28;;;;;;;;;;5018153;28;20121;-77
2023/10/09 14:23:34;;;;;;;23.05;6.13;;;;;;;;;;5023222;28;20032;-77
2023/10/09 14:26:01;;;;;;;15.52;5.82;;;;;;;;;;5017542;28;20033;-77
2023/10/09 14:28:28;;;;;;;9.05;5.13;;;;;;;;;;5019885;28;20042;-77
2023/10/09 14:30:59;;;;;;;11.70;5.05;;;;;;;;;;5017266;28;20045;-78
2023/10/09 14:33:27;;;;;;;9.93;5.13;;;;;;;;;;5034435;28;20041;-77
2023/10/09 14:35:54;;;;;;;13.60;5.40;;;;;;;;;;5016989;28;20083;-78
2023/10/09 14:38:26;;;;;;;10.98;5.20;;;;;;;;;;5010570;28;20026;-78
2023/10/09 14:40:53;;;;;;;11.68;4.95;;;;;;;;;;5030248;28;20131;-77
2023/10/09 14:43:27;;;;;;;9.45;5.18;;;;;;;;;;5016590;28;20033;-76
2023/10/09 14:45:54;;;;;;;11.82;4.78;;;;;;;;;;5014760;28;20040;-75
2023/10/09 14:48:25;;;;;;;9.80;4.55;;;;;;;;;;5016338;28;20060;-76
2023/10/09 14:50:53;;;;;;;9.27;4.28;;;;;;;;;;5012121;28;20037;-77
2023/10/09 14:53:19;;;;;;;8.27;4.55;;;;;;;;;;5015412;28;20052;-78
2023/10/09 14:55:45;;;;;;;8.40;4.78;;;;;;;;;;5014600;28;20388;-78
2023/10/09 14:58:11;;;;;;;9.25;4.28;;;;;;;;;;5034910;28;20038;-74
2023/10/09 15:00:38;;;;;;;9.65;4.82;;;;;;;;;;5018917;28;20104;-76
2023/10/09 15:03:04;;;;;;;6.97;4.30;;;;;;;;;;5037507;28;20041;-76
2023/10/09 15:05:31;;;;;;;11.02;4.07;;;;;;;;;;5016630;28;20036;-76
2023/10/09 15:07:57;;;;;;;8.35;4.30;;;;;;;;;;5014348;28;20029;-76
2023/10/09 15:10:24;;;;;;;9.95;4.53;;;;;;;;;;5011164;28;20045;-76
2023/10/09 15:12:49;;;;;;;10.57;5.55;;;;;;;;;;5014824;28;20033;-77
2023/10/09 15:15:15;;;;;;;17.17;5.38;;;;;;;;;;5013947;28;20048;-76
2023/10/09 15:17:45;;;;;;;7.45;4.68;;;;;;;;;;5014834;28;20136;-76
2023/10/09 15:20:13;;;;;;;9.25;5.18;;;;;;;;;;5017821;28;20049;-74
2023/10/09 15:22:40;;;;;;;9.50;5.10;;;;;;;;;;5042036;28;20045;-76
2023/10/09 15:25:06;;;;;;;12.95;4.38;;;;;;;;;;5045890;28;20045;-76
2023/10/09 15:27:32;;;;;;;7.45;4.55;;;;;;;;;;5020765;28;20026;-76
2023/10/09 15:29:57;;;;;;;7.45;4.18;;;;;;;;;;5017271;28;20628;-76
2023/10/09 15:32:23;;;;;;;9.13;4.70;;;;;;;;;;5019746;28;20202;-77
2023/10/09 15:34:49;;;;;;;7.63;4.05;;;;;;;;;;5014938;28;20033;-77
2023/10/09 15:37:14;;;;;;;8.80;4.20;;;;;;;;;;5012751;28;20041;-77
2023/10/09 15:39:39;;;;;;;8.68;4.57;;;;;;;;;;5012673;28;20942;-77
2023/10/09 15:42:06;;;;;;;7.82;4.30;;;;;;;;;;5015967;28;20052;-77
2023/10/09 15:44:36;;;;;;;9.80;4.40;;;;;;;;;;5016308;28;20029;-77
2023/10/09 15:47:02;;;;;;;8.10;3.97;;;;;;;;;;5011149;28;20014;-77
2023/10/09 15:49:33;;;;;;;12.27;4.47;;;;;;;;;;5013869;28;20527;-77
2023/10/09 15:52:01;;;;;;;9.13;4.82;;;;;;;;;;5015024;28;20046;-77
2023/10/09 15:54:27;;;;;;;8.52;4.72;;;;;;;;;;5012390;28;20541;-77
2023/10/09 15:56:54;;;;;;;9.18;4.55;;;;;;;;;;5028688;28;20045;-77
2023/10/09 15:59:20;;;;;;;11.95;5.32;;;;;;;;;;5012009;28;20057;-76
2023/10/09 16:01:45;;;;;;;9.18;4.78;;;;;;;;;;5012594;28;20038;-77
2023/10/09 16:04:11;;;;;;;7.32;4.57;;;;;;;;;;5015217;28;20030;-75
2023/10/09 16:06:41;;;;;;;10.02;4.70;;;;;;;;;;5029692;28;20041;-77
2023/10/09 16:09:15;;;;;;;7.72;4.40;;;;;;;;;;5012622;28;20034;-75
2023/10/09 16:11:40;;;;;;;8.55;4.68;;;;;;;;;;5011606;28;20026;-77
2023/10/09 16:14:15;;;;;;;10.23;4.30;;;;;;;;;;5011512;28;20056;-77
2023/10/09 16:16:45;;;;;;;12.98;4.85;;;;;;;;;;5011798;28;20118;-77
2023/10/09 16:19:11;;;;;;;9.13;3.92;;;;;;;;;;5011849;28;20048;-77
2023/10/09 16:21:40;;;;;;;9.13;4.80;;;;;;;;;;5014467;28;20102;-77
2023/10/09 16:24:08;;;;;;;6.82;4.63;;;;;;;;;;5022933;28;20033;-78
2023/10/09 16:26:45;;;;;;;10.23;4.68;;;;;;;;;;5010546;28;20083;-77
2023/10/09 16:29:11;;;;;;;9.98;4.55;;;;;;;;;;5012354;28;20845;-78
2023/10/09 16:31:37;;;;;;;9.73;4.15;;;;;;;;;;5010971;28;20117;-77
2023/10/09 16:34:06;;;;;;;8.98;4.30;;;;;;;;;;5016724;28;20172;-77
2023/10/09 16:36:35;;;;;;;6.68;4.10;;;;;;;;;;5011863;28;20127;-78
2023/10/09 16:39:01;;;;;;;10.23;5.38;;;;;;;;;;5012168;28;20057;-77
2023/10/09 16:41:27;;;;;;;10.63;5.20;;;;;;;;;;5011387;28;20419;-77
2023/10/09 16:43:53;;;;;;;10.57;5.10;;;;;;;;;;5016390;28;20037;-77
2023/10/09 16:46:21;;;;;;;12.18;5.00;;;;;;;;;;5024984;28;20665;-78
2023/10/09 16:48:52;;;;;;;9.35;5.63;;;;;;;;;;5041920;28;20060;-78
2023/10/09 16:51:21;;;;;;;10.40;4.95;;;;;;;;;;5016396;28;20089;-78
2023/10/09 16:53:51;;;;;;;10.70;4.57;;;;;;;;;;5010124;28;20141;-77
2023/10/09 16:56:19;;;;;;;11.30;5.72;;;;;;;;;;5010622;28;20123;-77
2023/10/09 16:58:46;;;;;;;8.57;4.70;;;;;;;;;;5014093;28;20034;-77
2023/10/09 17:01:11;;;;;;;11.95;5.15;;;;;;;;;;5009318;28;20037;-77